Time;durP1;ratioP1;P1;durP2;ratioP2;P2;SDS_P1;SDS_P2;PMS_P1;PMS_P2;Temp;Humidity;BMP_temperature;BMP_pressure;BME280_temperature;BME280_humidity;BME280_pressure;Samples;Min_cycle;Max_cycle;Signal;HPM_P1;HPM_P2
2022/12/11 00:01:13;;;;;;;3.08;1.42;;;4.70;99.90;;;;;;5000927;28;20030;-70
2022/12/11 00:03:39;;;;;;;4.05;1.60;;;4.40;99.90;;;;;;5002308;28;20376;-70
2022/12/11 00:06:07;;;;;;;3.38;1.63;;;4.40;99.90;;;;;;4997445;28;20038;-70
2022/12/11 00:08:33;;;;;;;3.85;1.45;;;4.10;99.90;;;;;;4997123;28;20412;-70
2022/12/11 00:10:58;;;;;;;3.42;1.40;;;4.20;99.90;;;;;;5000573;28;20022;-70
2022/12/11 00:13:24;;;;;;;3.50;1.35;;;4.60;99.90;;;;;;5004830;28;20515;-70
2022/12/11 00:15:49;;;;;;;2.53;1.10;;;4.90;99.90;;;;;;4998558;28;20464;-70
2022/12/11 00:18:15;;;;;;;2.45;1.25;;;4.60;99.90;;;;;;5002462;28;20032;-70
2022/12/11 00:20:41;;;;;;;1.67;0.80;;;5.00;99.90;;;;;;5007033;28;20094;-72
2022/12/11 00:23:06;;;;;;;2.30;1.13;;;4.70;99.90;;;;;;5006924;28;20082;-70
2022/12/11 00:25:32;;;;;;;2.35;1.15;;;4.30;99.90;;;;;;5002405;28;20030;-70
2022/12/11 00:27:58;;;;;;;2.97;1.25;;;4.50;99.90;;;;;;5005514;28;20153;-70
2022/12/11 00:30:23;;;;;;;2.83;1.30;;;4.60;99.90;;;;;;5002513;28;20053;-70
2022/12/11 00:32:52;;;;;;;2.85;1.30;;;4.50;99.90;;;;;;5000435;28;20536;-71
2022/12/11 00:35:17;;;;;;;2.47;1.20;;;4.70;99.90;;;;;;5000270;28;20397;-70
2022/12/11 00:37:43;;;;;;;3.17;1.30;;;4.40;99.90;;;;;;5001926;28;20030;-70
2022/12/11 00:40:09;;;;;;;3.13;1.20;;;4.00;99.90;;;;;;5004111;28;20085;-70
2022/12/11 00:42:35;;;;;;;2.35;1.38;;;4.30;99.90;;;;;;5002663;28;20034;-70
2022/12/11 00:45:01;;;;;;;1.58;0.70;;;4.20;99.90;;;;;;5001388;28;20120;-71
2022/12/11 00:47:26;;;;;;;2.42;1.45;;;4.00;99.90;;;;;;5007650;28;20030;-70
2022/12/11 00:49:52;;;;;;;2.22;1.08;;;4.40;99.90;;;;;;5001859;28;20041;-70
2022/12/11 00:52:17;;;;;;;3.25;0.98;;;5.30;98.30;;;;;;5001597;28;20030;-70
2022/12/11 00:54:43;;;;;;;2.20;1.15;;;5.30;98.70;;;;;;5001362;28;20038;-70
2022/12/11 00:57:09;;;;;;;2.13;0.98;;;4.50;99.90;;;;;;5005292;28;20034;-70
2022/12/11 00:59:34;;;;;;;1.90;0.90;;;4.40;99.90;;;;;;4999722;28;20482;-71
2022/12/11 01:02:00;;;;;;;2.60;1.05;;;4.30;99.90;;;;;;5018498;28;20029;-71
2022/12/11 01:04:26;;;;;;;2.28;0.95;;;4.00;99.90;;;;;;5004305;28;20037;-70
2022/12/11 01:06:51;;;;;;;3.38;0.65;;;4.20;99.90;;;;;;5001540;28;20026;-70
2022/12/11 01:12:01;;;;;;;1.05;0.73;;;4.50;99.90;;;;;;5002544;28;20080;-70
2022/12/11 01:14:27;;;;;;;2.28;1.05;;;4.60;99.90;;;;;;5001366;28;20041;-70
2022/12/11 01:16:52;;;;;;;2.80;1.27;;;4.10;99.90;;;;;;5005827;28;20039;-70
2022/12/11 01:19:18;;;;;;;1.95;0.90;;;4.40;99.90;;;;;;5000856;28;20026;-70
2022/12/11 01:21:43;;;;;;;2.25;0.80;;;4.30;99.90;;;;;;5002866;28;20060;-70
2022/12/11 01:24:09;;;;;;;2.22;0.93;;;4.50;99.90;;;;;;5002566;28;20074;-70
2022/12/11 01:26:35;;;;;;;2.22;1.05;;;5.00;99.30;;;;;;5003351;28;20105;-70
2022/12/11 01:29:01;;;;;;;1.45;0.70;;;4.90;99.30;;;;;;4999332;28;20026;-70
2022/12/11 01:31:26;;;;;;;0.98;0.60;;;5.00;99.10;;;;;;5001459;28;20065;-70
2022/12/11 01:33:55;;;;;;;1.52;0.80;;;5.10;98.70;;;;;;5000612;28;20037;-70
2022/12/11 01:36:22;;;;;;;0.98;0.60;;;5.20;98.00;;;;;;5004790;28;20103;-70
2022/12/11 01:38:48;;;;;;;1.73;0.90;;;5.20;99.50;;;;;;4999835;28;20109;-71
2022/12/11 01:41:16;;;;;;;2.17;0.90;;;4.90;99.30;;;;;;5001830;28;20026;-70
2022/12/11 01:43:56;;;;;;;1.05;0.60;;;5.00;98.60;;;;;;5000580;28;20026;-70
2022/12/11 01:46:22;;;;;;;0.88;0.60;;;5.00;98.70;;;;;;5005012;28;20049;-71
2022/12/11 01:48:48;;;;;;;2.08;1.10;;;4.80;99.90;;;;;;5002486;28;20026;-70
2022/12/11 01:51:14;;;;;;;1.42;0.70;;;5.00;98.00;;;;;;5003772;28;20030;-70
2022/12/11 01:53:44;;;;;;;1.75;0.77;;;5.10;98.50;;;;;;4999259;28;20393;-70
2022/12/11 01:56:10;;;;;;;1.95;0.85;;;5.10;99.60;;;;;;5002688;28;20038;-70
2022/12/11 01:58:47;;;;;;;2.08;0.80;;;4.60;99.90;;;;;;5001735;28;20032;-70
2022/12/11 02:01:33;;;;;;;1.55;0.75;;;4.40;99.90;;;;;;5001193;28;20584;-70
2022/12/11 02:04:00;;;;;;;2.15;0.90;;;4.40;99.90;;;;;;5003355;28;20121;-70
2022/12/11 02:06:38;;;;;;;1.77;0.77;;;4.80;98.50;;;;;;5005178;28;20053;-71
2022/12/11 02:09:11;;;;;;;1.40;0.73;;;4.60;99.80;;;;;;5001398;28;20447;-70
2022/12/11 02:11:59;;;;;;;1.02;0.43;;;4.80;99.40;;;;;;5001566;28;20030;-70
2022/12/11 02:14:41;;;;;;;1.50;1.20;;;4.60;99.60;;;;;;5002659;28;20030;-71
2022/12/11 02:17:32;;;;;;;0.75;0.50;;;5.00;98.00;;;;;;5003255;28;20022;-71
2022/12/11 02:20:11;;;;;;;1.63;0.82;;;5.10;97.00;;;;;;5002501;28;20116;-71
2022/12/11 02:22:55;;;;;;;0.88;0.52;;;5.00;98.50;;;;;;5003127;28;20034;-70
2022/12/11 02:25:54;;;;;;;1.48;0.65;;;4.90;97.20;;;;;;5000558;28;20042;-71
2022/12/11 02:28:37;;;;;;;1.23;0.60;;;5.00;98.20;;;;;;4999625;28;20029;-70
2022/12/11 02:31:27;;;;;;;1.27;0.55;;;5.30;95.90;;;;;;5002408;28;20049;-71
2022/12/11 02:34:03;;;;;;;1.35;0.50;;;5.30;96.90;;;;;;5002672;28;20620;-70
2022/12/11 02:36:35;;;;;;;0.93;0.57;;;5.30;96.20;;;;;;5003362;28;20052;-70
2022/12/11 02:39:03;;;;;;;1.42;0.55;;;5.30;96.50;;;;;;5000161;28;20030;-71
2022/12/11 02:41:30;;;;;;;2.10;0.70;;;5.30;96.40;;;;;;4999144;28;20022;-71
2022/12/11 02:43:56;;;;;;;0.70;0.50;;;5.00;98.10;;;;;;4997671;28;20024;-71
2022/12/11 02:46:24;;;;;;;1.30;0.50;;;4.90;98.90;;;;;;4999663;28;20026;-70
2022/12/11 02:48:51;;;;;;;0.93;0.57;;;4.80;98.70;;;;;;5000587;28;20036;-70
2022/12/11 02:51:24;;;;;;;2.10;0.77;;;5.10;96.40;;;;;;5000541;28;20412;-70
2022/12/11 02:53:52;;;;;;;2.35;0.75;;;5.30;96.50;;;;;;5001373;28;20033;-71
2022/12/11 02:56:23;;;;;;;2.85;0.60;;;5.20;96.50;;;;;;5002407;28;20022;-71
2022/12/11 02:58:54;;;;;;;1.25;0.65;;;5.40;95.30;;;;;;5000253;28;20388;-70
2022/12/11 03:01:20;;;;;;;0.95;0.52;;;5.40;95.70;;;;;;5004590;28;20476;-70
2022/12/11 03:03:46;;;;;;;1.42;0.70;;;5.30;96.50;;;;;;5001916;28;20531;-71
2022/12/11 03:06:17;;;;;;;1.45;0.50;;;5.00;97.20;;;;;;5002569;28;20030;-70
2022/12/11 03:08:43;;;;;;;1.17;0.68;;;5.00;96.90;;;;;;4999000;28;20026;-71
2022/12/11 03:11:12;;;;;;;0.93;0.50;;;5.00;97.40;;;;;;5003440;28;20038;-71
2022/12/11 03:13:41;;;;;;;2.35;0.40;;;4.80;97.60;;;;;;5002468;28;20026;-71
2022/12/11 03:16:07;;;;;;;0.22;0.20;;;5.10;96.50;;;;;;5001425;28;20022;-70
2022/12/11 03:18:38;;;;;;;1.45;0.63;;;5.10;97.10;;;;;;5002625;28;20041;-70
2022/12/11 03:21:44;;;;;;;0.75;0.30;;;5.00;97.50;;;;;;4999797;28;20061;-70
2022/12/11 03:24:20;;;;;;;0.80;0.40;;;5.10;97.10;;;;;;4995785;28;20056;-71
2022/12/11 03:26:54;;;;;;;1.30;0.50;;;5.00;97.70;;;;;;5000941;28;20061;-71
2022/12/11 03:29:30;;;;;;;1.05;0.35;;;5.00;97.60;;;;;;5000598;28;20433;-71
2022/12/11 03:32:09;;;;;;;0.88;0.32;;;5.00;97.80;;;;;;5003113;28;20400;-70
2022/12/11 03:34:48;;;;;;;1.50;0.55;;;4.90;98.50;;;;;;5003611;28;20042;-70
2022/12/11 03:37:16;;;;;;;0.55;0.30;;;4.60;99.90;;;;;;5002758;28;20030;-71
2022/12/11 03:39:47;;;;;;;0.98;0.55;;;4.50;99.90;;;;;;5005744;28;20066;-71
2022/12/11 03:42:15;;;;;;;1.20;0.30;;;4.40;99.90;;;;;;5008070;28;20041;-70
2022/12/11 03:44:44;;;;;;;1.67;0.73;;;4.40;99.90;;;;;;5006965;28;20138;-70
2022/12/11 03:47:17;;;;;;;0.75;0.40;;;4.10;99.90;;;;;;5004799;28;20407;-71
2022/12/11 03:49:44;;;;;;;1.05;0.50;;;4.00;99.90;;;;;;5003703;28;20061;-71
2022/12/11 03:52:13;;;;;;;0.88;0.40;;;4.00;99.90;;;;;;5009165;28;20030;-71
2022/12/11 03:54:41;;;;;;;1.25;0.30;;;3.90;99.90;;;;;;5006268;28;20045;-70
2022/12/11 03:57:11;;;;;;;0.93;0.40;;;3.80;99.90;;;;;;5007217;28;20029;-71
2022/12/11 03:59:37;;;;;;;1.60;0.60;;;3.70;99.90;;;;;;5002956;28;20061;-70
2022/12/11 04:02:09;;;;;;;3.10;0.40;;;3.70;99.90;;;;;;5007785;28;20312;-68
2022/12/11 04:04:39;;;;;;;0.90;0.45;;;3.70;99.90;;;;;;4996993;28;20113;-69
2022/12/11 04:07:05;;;;;;;0.75;0.38;;;3.70;99.90;;;;;;5000418;28;20113;-69
2022/12/11 04:09:31;;;;;;;1.10;0.47;;;3.80;99.90;;;;;;4998844;28;20080;-69
2022/12/11 04:11:57;;;;;;;1.05;0.50;;;3.80;99.90;;;;;;5000627;28;20033;-69
2022/12/11 04:17:06;;;;;;;1.30;0.60;;;3.90;99.90;;;;;;4997165;28;20050;-69
2022/12/11 04:25:03;;;;;;;1.73;0.55;;;3.80;99.90;;;;;;4995236;28;20630;-69
2022/12/11 04:30:19;;;;;;;4.13;0.70;;;3.90;99.90;;;;;;4998580;28;20427;-69
2022/12/11 04:32:45;;;;;;;1.08;0.50;;;3.90;99.90;;;;;;5004399;28;20350;-68
2022/12/11 04:35:11;;;;;;;0.55;0.38;;;3.90;99.90;;;;;;5001200;28;20038;-70
2022/12/11 04:37:37;;;;;;;0.95;0.57;;;3.80;99.90;;;;;;4998676;28;20030;-69
2022/12/11 04:40:05;;;;;;;1.45;0.55;;;3.70;99.90;;;;;;4998146;28;20523;-69
2022/12/11 04:42:31;;;;;;;2.58;0.60;;;3.70;99.90;;;;;;5001848;28;20066;-69
2022/12/11 04:44:56;;;;;;;0.70;0.30;;;3.90;99.90;;;;;;4997881;28;20062;-69
2022/12/11 04:47:22;;;;;;;2.55;0.70;;;3.90;99.90;;;;;;5005693;28;20042;-69
2022/12/11 04:49:48;;;;;;;1.15;0.63;;;4.00;99.90;;;;;;4999115;28;20467;-69
2022/12/11 04:52:13;;;;;;;1.33;0.60;;;4.00;99.90;;;;;;5003587;28;20075;-69
2022/12/11 04:54:39;;;;;;;0.55;0.38;;;3.80;99.90;;;;;;4999505;28;20125;-68
2022/12/11 04:57:05;;;;;;;1.98;0.57;;;3.90;99.90;;;;;;5000530;28;20065;-69
2022/12/11 04:59:32;;;;;;;0.40;0.30;;;4.00;99.90;;;;;;4997514;28;20030;-69
2022/12/11 05:01:58;;;;;;;1.98;0.90;;;4.00;99.90;;;;;;5003952;28;20030;-68
2022/12/11 05:04:24;;;;;;;1.70;0.52;;;3.90;99.90;;;;;;4997614;28;20036;-68
2022/12/11 05:06:50;;;;;;;0.55;0.35;;;4.10;99.90;;;;;;5000782;28;20046;-69
2022/12/11 05:09:16;;;;;;;1.10;0.47;;;4.20;99.90;;;;;;4997476;28;20092;-69
2022/12/11 05:11:41;;;;;;;0.98;0.47;;;4.20;99.90;;;;;;5000650;28;20143;-69
2022/12/11 05:14:07;;;;;;;1.10;0.57;;;4.30;99.90;;;;;;4997558;28;20593;-69
2022/12/11 05:16:32;;;;;;;2.30;0.70;;;4.20;99.90;;;;;;4998781;28;20459;-69
2022/12/11 05:18:58;;;;;;;0.77;0.40;;;4.00;99.90;;;;;;4997699;28;20033;-69
2022/12/11 05:21:24;;;;;;;1.50;0.70;;;4.10;99.90;;;;;;5000807;28;20350;-69
2022/12/11 05:23:49;;;;;;;1.20;0.88;;;4.10;99.90;;;;;;4997771;28;20484;-69
2022/12/11 05:26:18;;;;;;;0.60;0.50;;;3.90;99.90;;;;;;4997191;28;20041;-69
2022/12/11 05:28:44;;;;;;;1.73;0.60;;;3.90;99.90;;;;;;5000202;28;20026;-69
2022/12/11 05:31:18;;;;;;;1.38;0.55;;;3.90;99.90;;;;;;4995572;28;20207;-68
2022/12/11 05:33:45;;;;;;;1.70;0.70;;;4.00;99.90;;;;;;4994515;28;20027;-70
2022/12/11 05:36:17;;;;;;;1.33;0.57;;;4.00;99.90;;;;;;5000737;28;20030;-69
2022/12/11 05:38:43;;;;;;;1.15;0.68;;;4.20;99.50;;;;;;4997701;28;20093;-69
2022/12/11 05:41:13;;;;;;;1.10;0.40;;;4.40;98.80;;;;;;4997072;28;20105;-69
2022/12/11 05:43:39;;;;;;;1.08;0.50;;;4.40;99.50;;;;;;4997894;28;20041;-69
2022/12/11 05:46:14;;;;;;;1.38;0.45;;;4.50;98.50;;;;;;5001803;28;20033;-69
2022/12/11 05:48:40;;;;;;;1.67;0.60;;;4.40;98.70;;;;;;4996684;28;20053;-69
2022/12/11 05:51:07;;;;;;;1.23;0.43;;;4.20;99.90;;;;;;4997708;28;20064;-69
2022/12/11 05:53:34;;;;;;;0.57;0.38;;;4.10;99.90;;;;;;4998114;28;20029;-69
2022/12/11 05:56:05;;;;;;;0.65;0.30;;;4.10;99.90;;;;;;4999148;28;20713;-69
2022/12/11 05:58:31;;;;;;;1.38;0.65;;;3.90;99.90;;;;;;4997047;28;20037;-69
2022/12/11 06:00:58;;;;;;;2.00;0.80;;;3.90;99.90;;;;;;4994670;28;20499;-70
2022/12/11 06:03:24;;;;;;;1.02;0.45;;;3.90;99.90;;;;;;4996061;28;20031;-69
2022/12/11 06:05:49;;;;;;;1.50;0.70;;;4.00;99.90;;;;;;5001789;28;20125;-68
2022/12/11 06:08:15;;;;;;;1.73;0.60;;;4.20;99.10;;;;;;4999011;28;20097;-69
2022/12/11 06:10:48;;;;;;;3.17;0.60;;;4.10;99.90;;;;;;4995663;28;20128;-69
2022/12/11 06:13:14;;;;;;;1.48;0.70;;;4.20;98.10;;;;;;4997781;28;20026;-70
2022/12/11 06:15:40;;;;;;;1.30;0.63;;;4.30;98.60;;;;;;4998475;28;20388;-69
2022/12/11 06:18:05;;;;;;;1.13;0.60;;;4.30;98.30;;;;;;4999802;28;20121;-69
2022/12/11 06:20:33;;;;;;;1.25;0.88;;;4.50;97.30;;;;;;5000440;28;20519;-69
2022/12/11 06:22:59;;;;;;;1.15;0.60;;;4.40;98.20;;;;;;4995439;28;20034;-69
2022/12/11 06:25:25;;;;;;;1.48;0.60;;;4.30;98.50;;;;;;5000344;28;20471;-69
2022/12/11 06:27:51;;;;;;;2.65;0.80;;;4.30;98.10;;;;;;5002525;28;20124;-69
2022/12/11 06:30:17;;;;;;;1.00;0.60;;;4.30;97.70;;;;;;4993584;28;20403;-69
2022/12/11 06:32:43;;;;;;;1.67;0.70;;;4.30;98.30;;;;;;5001696;28;20037;-69
2022/12/11 06:35:09;;;;;;;1.15;0.50;;;4.20;98.50;;;;;;4999947;28;20041;-69
2022/12/11 06:37:35;;;;;;;1.25;0.63;;;4.10;98.90;;;;;;4999669;28;20746;-68
2022/12/11 06:40:02;;;;;;;2.15;1.00;;;4.10;99.20;;;;;;4998760;28;20084;-68
2022/12/11 06:42:29;;;;;;;2.55;0.95;;;4.00;99.60;;;;;;4994649;28;20034;-69
2022/12/11 06:44:56;;;;;;;2.45;1.25;;;4.00;99.40;;;;;;4994879;28;20112;-68
2022/12/11 06:47:22;;;;;;;3.30;0.90;;;3.90;99.90;;;;;;4996769;28;20068;-69
2022/12/11 06:49:47;;;;;;;2.33;0.70;;;3.80;99.90;;;;;;4995872;28;20115;-68
2022/12/11 06:52:13;;;;;;;2.35;0.93;;;3.90;99.40;;;;;;4997184;28;20026;-69
2022/12/11 06:54:39;;;;;;;1.75;0.80;;;4.00;99.60;;;;;;4997700;28;20042;-69
2022/12/11 06:57:04;;;;;;;1.67;0.80;;;3.90;99.90;;;;;;4999540;28;20026;-69
2022/12/11 06:59:30;;;;;;;2.30;0.63;;;3.90;99.90;;;;;;4995406;28;20037;-69
2022/12/11 07:01:55;;;;;;;1.58;0.90;;;4.00;98.80;;;;;;4959574;28;20030;-68
2022/12/11 07:04:23;;;;;;;1.55;0.82;;;4.10;98.30;;;;;;4892627;28;20057;-68
2022/12/11 07:06:49;;;;;;;0.55;0.38;;;4.00;98.60;;;;;;4990436;28;20025;-69
2022/12/11 07:09:15;;;;;;;1.75;0.80;;;4.10;98.50;;;;;;5001661;28;20030;-69
2022/12/11 07:11:40;;;;;;;2.80;0.82;;;4.10;97.70;;;;;;5003256;28;20030;-69
2022/12/11 07:14:06;;;;;;;1.38;0.57;;;4.20;96.40;;;;;;5006907;28;20036;-70
2022/12/11 07:16:32;;;;;;;1.42;0.63;;;4.20;97.70;;;;;;4999576;28;20114;-69
2022/12/11 07:18:57;;;;;;;1.17;0.63;;;4.10;97.30;;;;;;4998907;28;20019;-69
2022/12/11 07:21:23;;;;;;;1.75;0.80;;;4.20;96.90;;;;;;4998932;28;20061;-69
2022/12/11 07:23:49;;;;;;;1.65;0.82;;;4.20;96.40;;;;;;5001389;28;20511;-69
2022/12/11 07:26:17;;;;;;;2.47;1.02;;;4.40;95.70;;;;;;5002372;28;20030;-69
2022/12/11 07:28:43;;;;;;;2.30;1.00;;;4.30;95.70;;;;;;5001260;28;20077;-69
2022/12/11 07:31:12;;;;;;;2.22;0.98;;;4.30;96.20;;;;;;5001076;28;20509;-69
2022/12/11 07:33:37;;;;;;;1.73;0.80;;;4.30;95.40;;;;;;5000194;28;20065;-68
2022/12/11 07:36:05;;;;;;;1.95;1.02;;;4.40;94.50;;;;;;4997360;28;20510;-69
2022/12/11 07:38:32;;;;;;;1.30;0.70;;;4.50;94.40;;;;;;5001680;28;20091;-69
2022/12/11 07:41:05;;;;;;;1.45;0.70;;;4.60;94.30;;;;;;4994107;28;20034;-68
2022/12/11 07:43:32;;;;;;;1.70;0.77;;;4.50;94.50;;;;;;5004041;28;20411;-69
2022/12/11 07:46:05;;;;;;;2.45;1.15;;;4.60;92.90;;;;;;4999677;28;20045;-69
2022/12/11 07:48:31;;;;;;;3.90;0.88;;;4.70;93.30;;;;;;4999522;28;20121;-68
2022/12/11 07:51:11;;;;;;;4.00;0.82;;;4.70;92.60;;;;;;5004550;28;20082;-68
2022/12/11 07:53:37;;;;;;;2.03;0.80;;;4.60;93.40;;;;;;4998898;28;20120;-69
2022/12/11 07:56:03;;;;;;;1.58;0.82;;;4.70;92.00;;;;;;4996602;28;20089;-68
2022/12/11 07:58:29;;;;;;;4.03;1.20;;;4.80;92.60;;;;;;4996032;28;20041;-70
2022/12/11 08:00:55;;;;;;;2.70;1.13;;;4.70;92.60;;;;;;4997956;28;20026;-70
2022/12/11 08:03:20;;;;;;;2.17;0.98;;;4.80;91.40;;;;;;4999973;28;20034;-70
2022/12/11 08:05:51;;;;;;;1.67;0.93;;;4.80;91.80;;;;;;4998333;28;20511;-69
2022/12/11 08:08:17;;;;;;;1.63;0.90;;;4.90;90.90;;;;;;4995692;28;20078;-69
2022/12/11 08:10:43;;;;;;;1.83;0.80;;;4.90;91.60;;;;;;5001322;28;20034;-70
2022/12/11 08:13:10;;;;;;;1.45;0.77;;;4.90;91.10;;;;;;4997446;28;20736;-70
2022/12/11 08:15:36;;;;;;;1.90;1.00;;;5.00;90.90;;;;;;5001387;28;20049;-70
2022/12/11 08:18:01;;;;;;;2.05;0.93;;;5.00;90.40;;;;;;4996417;28;20577;-69
2022/12/11 08:20:27;;;;;;;3.15;1.17;;;4.90;91.50;;;;;;4997250;28;20121;-70
2022/12/11 08:22:53;;;;;;;1.90;1.08;;;4.90;91.80;;;;;;4999736;28;20060;-69
2022/12/11 08:25:18;;;;;;;3.40;1.70;;;4.80;92.00;;;;;;4998769;28;20041;-69
2022/12/11 08:27:44;;;;;;;2.15;1.10;;;4.90;90.60;;;;;;4996994;28;20126;-69
2022/12/11 08:30:10;;;;;;;1.45;0.80;;;5.00;90.50;;;;;;5000211;28;20034;-69
2022/12/11 08:32:35;;;;;;;2.80;0.90;;;4.90;91.20;;;;;;4997511;28;20089;-69
2022/12/11 08:35:01;;;;;;;2.65;1.20;;;4.90;90.30;;;;;;4996075;28;20084;-69
2022/12/11 08:37:28;;;;;;;2.95;1.48;;;5.00;89.70;;;;;;4997782;28;20492;-70
2022/12/11 08:39:54;;;;;;;2.80;1.20;;;5.20;90.30;;;;;;4993682;28;20022;-71
2022/12/11 08:42:20;;;;;;;1.98;1.05;;;5.10;87.20;;;;;;5002869;28;20113;-70
2022/12/11 08:44:45;;;;;;;2.40;1.10;;;5.10;87.50;;;;;;5000387;28;20022;-70
2022/12/11 08:47:11;;;;;;;1.88;0.93;;;5.10;89.30;;;;;;4996450;28;20042;-70
2022/12/11 08:49:37;;;;;;;2.35;0.88;;;5.00;88.00;;;;;;4992033;28;20042;-70
2022/12/11 08:52:03;;;;;;;1.92;0.80;;;5.00;90.00;;;;;;4997876;28;20048;-70
2022/12/11 08:54:29;;;;;;;2.70;1.02;;;5.00;90.00;;;;;;5001336;28;20072;-70
2022/12/11 08:56:55;;;;;;;2.35;1.00;;;5.00;89.20;;;;;;4993911;28;20315;-70
2022/12/11 08:59:21;;;;;;;3.60;1.17;;;5.00;87.40;;;;;;4994902;28;20085;-69
2022/12/11 09:01:47;;;;;;;2.08;1.20;;;5.10;87.40;;;;;;5001940;28;20565;-70
2022/12/11 09:04:13;;;;;;;2.47;1.00;;;5.00;90.10;;;;;;5000174;28;20034;-70
2022/12/11 09:06:39;;;;;;;2.35;1.20;;;5.00;89.00;;;;;;4993574;28;20034;-69
2022/12/11 09:09:05;;;;;;;18.23;2.42;;;5.00;88.80;;;;;;4996312;28;20038;-69
2022/12/11 09:11:34;;;;;;;3.55;1.45;;;5.10;90.10;;;;;;5000164;28;20149;-70
2022/12/11 09:14:01;;;;;;;2.67;1.00;;;4.90;90.40;;;;;;4998996;28;20061;-70
2022/12/11 09:16:27;;;;;;;2.55;1.02;;;4.90;89.80;;;;;;5003761;28;20124;-70
2022/12/11 09:18:55;;;;;;;2.67;1.40;;;5.00;89.90;;;;;;5005395;28;20121;-70
2022/12/11 09:21:23;;;;;;;3.08;1.20;;;4.90;90.10;;;;;;5006288;28;20037;-70
2022/12/11 09:23:53;;;;;;;3.28;1.63;;;4.90;90.80;;;;;;4987201;28;20101;-70
2022/12/11 09:26:18;;;;;;;2.58;1.20;;;4.90;91.20;;;;;;5006539;28;20026;-69
2022/12/11 09:28:45;;;;;;;2.67;1.40;;;4.90;87.70;;;;;;5005289;28;20365;-70
2022/12/11 09:31:17;;;;;;;3.33;2.10;;;4.90;89.10;;;;;;5003257;28;20092;-70
2022/12/11 09:33:44;;;;;;;2.25;1.17;;;5.00;90.50;;;;;;4997504;28;20120;-70
2022/12/11 09:36:10;;;;;;;3.20;1.33;;;4.80;91.60;;;;;;5002803;28;20041;-70
2022/12/11 09:38:36;;;;;;;3.80;1.77;;;4.70;91.50;;;;;;5004791;28;20092;-70
2022/12/11 09:41:19;;;;;;;3.90;1.77;;;4.80;91.40;;;;;;4995007;28;20038;-70
2022/12/11 09:44:06;;;;;;;2.55;1.30;;;4.70;91.20;;;;;;5000642;28;20407;-70
2022/12/11 09:46:34;;;;;;;2.72;1.33;;;4.80;89.00;;;;;;4994310;28;20121;-70
2022/12/11 09:49:02;;;;;;;5.82;2.50;;;4.90;89.20;;;;;;4997361;28;20030;-69
2022/12/11 09:52:01;;;;;;;5.47;2.42;;;5.00;90.10;;;;;;5005593;28;20610;-70
2022/12/11 09:54:27;;;;;;;5.32;2.10;;;4.90;90.30;;;;;;4981513;28;20421;-70
2022/12/11 09:57:39;;;;;;;4.13;2.47;;;4.90;91.50;;;;;;5003885;28;20038;-69
2022/12/11 10:00:23;;;;;;;2.50;1.30;;;4.70;92.80;;;;;;4998682;28;20084;-69
2022/12/11 10:03:11;;;;;;;3.08;1.33;;;4.70;90.50;;;;;;5002543;28;20397;-69
2022/12/11 10:06:13;;;;;;;2.65;1.42;;;4.70;90.20;;;;;;5002219;28;20100;-69
2022/12/11 10:09:30;;;;;;;3.20;1.50;;;4.70;91.00;;;;;;4997818;28;20036;-71
2022/12/11 10:12:04;;;;;;;16.95;9.90;;;4.90;90.60;;;;;;4968222;28;20128;-69
2022/12/11 10:14:49;;;;;;;3.17;1.40;;;5.10;89.70;;;;;;4999691;28;20042;-69
2022/12/11 10:17:36;;;;;;;3.40;1.63;;;5.00;90.00;;;;;;4998828;28;20496;-69
2022/12/11 10:20:33;;;;;;;3.17;1.55;;;4.90;90.30;;;;;;4994740;28;20041;-69
2022/12/11 10:23:01;;;;;;;2.88;1.38;;;4.70;88.70;;;;;;4993970;28;20025;-69
2022/12/11 10:25:31;;;;;;;2.78;1.25;;;4.70;90.10;;;;;;4996121;28;20077;-69
2022/12/11 10:27:56;;;;;;;3.72;1.52;;;4.60;90.80;;;;;;4993269;28;20030;-68
2022/12/11 10:30:25;;;;;;;2.95;1.20;;;4.60;90.00;;;;;;4998183;28;20609;-69
2022/12/11 10:33:05;;;;;;;2.90;1.58;;;4.70;88.10;;;;;;4998360;28;20054;-69
2022/12/11 10:35:49;;;;;;;3.25;1.30;;;4.70;88.40;;;;;;4995961;28;20039;-69
2022/12/11 10:38:31;;;;;;;2.45;1.25;;;4.70;87.30;;;;;;4992937;28;20678;-69
2022/12/11 10:41:03;;;;;;;3.25;1.45;;;4.80;86.50;;;;;;4997819;28;20030;-68
2022/12/11 10:43:38;;;;;;;3.22;1.30;;;4.70;89.40;;;;;;5002671;28;20022;-69
2022/12/11 10:46:06;;;;;;;3.45;1.48;;;4.60;89.60;;;;;;5002020;28;20376;-69
2022/12/11 10:48:32;;;;;;;3.45;1.48;;;4.70;88.30;;;;;;5003139;28;20038;-69
2022/12/11 10:51:02;;;;;;;3.58;1.55;;;4.60;90.30;;;;;;5003184;28;20104;-70
2022/12/11 10:53:29;;;;;;;3.88;1.60;;;4.70;86.30;;;;;;5005734;28;20034;-70
2022/12/11 10:55:57;;;;;;;4.25;1.80;;;4.70;90.10;;;;;;5006393;28;20112;-69
2022/12/11 10:58:26;;;;;;;3.25;1.40;;;4.60;89.40;;;;;;5001874;28;20026;-70
2022/12/11 11:01:07;;;;;;;3.92;1.83;;;4.60;90.30;;;;;;5007237;28;20028;-69
2022/12/11 11:03:35;;;;;;;2.75;1.40;;;4.60;88.50;;;;;;5004366;28;20068;-69
2022/12/11 11:06:11;;;;;;;2.88;1.33;;;4.60;88.90;;;;;;5002270;28;20032;-69
2022/12/11 11:08:46;;;;;;;3.25;1.45;;;4.60;89.80;;;;;;5002162;28;20525;-69
2022/12/11 11:11:27;;;;;;;2.40;1.30;;;4.60;90.90;;;;;;5005485;28;20109;-69
2022/12/11 11:14:04;;;;;;;2.50;1.38;;;4.60;88.80;;;;;;5004050;28;20108;-69
2022/12/11 11:16:30;;;;;;;4.38;1.85;;;4.70;88.90;;;;;;5004410;28;20038;-69
2022/12/11 11:18:57;;;;;;;3.65;1.50;;;4.70;88.90;;;;;;5002573;28;20036;-69
2022/12/11 11:21:25;;;;;;;3.63;1.67;;;4.70;90.40;;;;;;5002634;28;20436;-69
2022/12/11 11:23:53;;;;;;;4.03;2.03;;;4.70;90.00;;;;;;5000925;28;20100;-69
2022/12/11 11:26:21;;;;;;;2.63;1.23;;;4.80;90.50;;;;;;5002532;28;20371;-70
2022/12/11 11:28:56;;;;;;;3.80;1.60;;;4.80;90.30;;;;;;5002301;28;20069;-69
2022/12/11 11:31:32;;;;;;;4.15;2.15;;;4.70;90.40;;;;;;5002991;28;20111;-69
2022/12/11 11:34:07;;;;;;;2.80;1.52;;;4.70;90.70;;;;;;5002241;28;20033;-69
2022/12/11 11:36:35;;;;;;;2.45;1.10;;;4.60;89.40;;;;;;5003612;28;20676;-69
2022/12/11 11:39:22;;;;;;;2.63;1.35;;;4.80;90.10;;;;;;5005892;28;20101;-69
2022/12/11 11:42:12;;;;;;;4.05;1.58;;;4.80;87.90;;;;;;5002510;28;20353;-70
2022/12/11 11:44:58;;;;;;;3.85;1.80;;;4.70;90.60;;;;;;5004522;28;20044;-69
2022/12/11 11:47:39;;;;;;;5.88;2.00;;;4.70;90.30;;;;;;5002273;28;20022;-69
2022/12/11 11:50:17;;;;;;;4.30;1.85;;;4.80;89.30;;;;;;5008277;28;20109;-70
2022/12/11 11:52:50;;;;;;;2.47;1.20;;;4.90;88.70;;;;;;4998310;28;20618;-73
2022/12/11 11:55:41;;;;;;;4.77;1.87;;;4.90;89.00;;;;;;5000704;28;20527;-70
2022/12/11 11:58:12;;;;;;;3.88;1.88;;;4.90;88.90;;;;;;4984165;28;20613;-70
2022/12/11 12:00:38;;;;;;;3.45;1.50;;;4.90;88.50;;;;;;5001893;28;20068;-71
2022/12/11 12:03:15;;;;;;;3.78;1.60;;;4.90;86.70;;;;;;5001090;28;20457;-70
2022/12/11 12:05:44;;;;;;;3.28;1.65;;;5.00;89.20;;;;;;4998851;28;20105;-71
2022/12/11 12:08:24;;;;;;;4.97;3.47;;;5.00;85.70;;;;;;5000424;28;20095;-72
2022/12/11 12:10:54;;;;;;;4.82;1.88;;;5.10;89.00;;;;;;4996553;28;20112;-72
2022/12/11 12:13:29;;;;;;;2.88;1.40;;;5.10;87.20;;;;;;4998388;28;20037;-72
2022/12/11 12:16:00;;;;;;;4.80;1.83;;;5.10;87.10;;;;;;4998709;28;20420;-72
2022/12/11 12:18:25;;;;;;;3.55;1.48;;;5.30;87.20;;;;;;4999859;28;20611;-70
2022/12/11 12:20:59;;;;;;;4.15;1.88;;;5.30;86.00;;;;;;4997659;28;20034;-70
2022/12/11 12:23:52;;;;;;;3.63;1.55;;;5.10;85.20;;;;;;5000679;28;20054;-72
2022/12/11 12:26:36;;;;;;;3.25;1.52;;;5.10;84.20;;;;;;4998686;28;20574;-71
2022/12/11 12:29:19;;;;;;;5.47;1.40;;;5.20;86.20;;;;;;4997835;28;20176;-72
2022/12/11 12:31:58;;;;;;;3.47;1.70;;;5.30;84.30;;;;;;4995308;28;20084;-71
2022/12/11 12:34:44;;;;;;;3.72;1.92;;;5.20;86.10;;;;;;4997235;28;20029;-72
2022/12/11 12:37:09;;;;;;;2.95;1.42;;;5.10;88.20;;;;;;4992112;28;20026;-72
2022/12/11 12:39:54;;;;;;;3.25;1.55;;;5.20;83.90;;;;;;4995356;28;20048;-72
2022/12/11 12:42:20;;;;;;;;;;;5.20;85.80;;;;;;4995651;28;20369;-72
2022/12/11 12:45:12;;;;;;;3.25;1.50;;;5.10;84.50;;;;;;5007239;28;19936;-73
2022/12/11 12:47:41;;;;;;;3.88;1.65;;;5.10;85.20;;;;;;4993412;28;20026;-70
2022/12/11 12:50:29;;;;;;;2.85;1.40;;;5.20;84.40;;;;;;4996413;28;20044;-71
2022/12/11 12:52:56;;;;;;;3.80;1.50;;;5.30;85.60;;;;;;5012386;28;20437;-70
2022/12/11 12:55:28;;;;;;;5.30;1.90;;;5.10;82.60;;;;;;4994917;28;20121;-71
2022/12/11 12:57:59;;;;;;;4.30;1.70;;;5.10;85.20;;;;;;4996303;28;20083;-71
2022/12/11 13:00:43;;;;;;;7.05;1.80;;;5.10;85.80;;;;;;4997160;28;20030;-70
2022/12/11 13:03:21;;;;;;;4.35;1.70;;;5.10;85.90;;;;;;4991252;28;20026;-71
2022/12/11 13:06:06;;;;;;;3.13;1.33;;;5.10;84.70;;;;;;4994711;28;20113;-70
2022/12/11 13:08:45;;;;;;;3.13;1.33;;;5.10;84.00;;;;;;4991097;28;20077;-71
2022/12/11 13:11:12;;;;;;;2.90;1.40;;;5.20;86.40;;;;;;4994847;28;20026;-70
2022/12/11 13:13:43;;;;;;;3.60;1.42;;;5.10;84.30;;;;;;4992155;28;20030;-71
2022/12/11 13:16:14;;;;;;;5.03;2.03;;;5.20;84.00;;;;;;4991463;28;20034;-71
2022/12/11 13:18:41;;;;;;;3.33;1.52;;;5.10;83.30;;;;;;4992469;28;20038;-71
2022/12/11 13:21:32;;;;;;;2.80;1.60;;;5.10;81.80;;;;;;4995989;28;20041;-72
2022/12/11 13:24:25;;;;;;;2.75;1.70;;;5.10;82.20;;;;;;4997070;28;20057;-71
2022/12/11 13:26:51;;;;;;;4.53;1.70;;;5.10;83.30;;;;;;4992128;28;20613;-71
2022/12/11 13:29:31;;;;;;;4.30;1.58;;;5.10;80.40;;;;;;4994987;28;20030;-71